sensor_id;sensor_type;location;lat;lon;timestamp;pressure;altitude;pressure_sealevel;temperature;humidity
57050;BME280;42935;50.966;16.992;2023-08-07T00:02:45;100150.46;;;12.35;100.00
57050;BME280;42935;50.966;16.992;2023-08-07T00:06:06;100171.05;;;12.45;100.00
57050;BME280;42935;50.966;16.992;2023-08-07T00:09:23;100125.47;;;12.15;100.00
57050;BME280;42935;50.966;16.992;2023-08-07T00:12:46;100168.50;;;12.40;100.00
57050;BME280;42935;50.966;16.992;2023-08-07T00:16:04;100137.80;;;12.23;100.00
57050;BME280;42935;50.966;16.992;2023-08-07T00:19:21;100177.52;;;12.49;100.00
57050;BME280;42935;50.966;16.992;2023-08-07T00:22:42;100179.25;;;12.54;100.00
57050;BME280;42935;50.966;16.992;2023-08-07T00:25:59;100146.54;;;12.35;100.00
57050;BME280;42935;50.966;16.992;2023-08-07T00:29:20;100168.91;;;12.55;100.00
57050;BME280;42935;50.966;16.992;2023-08-07T00:32:42;100160.41;;;12.48;100.00
57050;BME280;42935;50.966;16.992;2023-08-07T00:36:03;100173.84;;;12.62;100.00
57050;BME280;42935;50.966;16.992;2023-08-07T00:39:24;100175.73;;;12.71;100.00
57050;BME280;42935;50.966;16.992;2023-08-07T00:42:43;100134.43;;;12.45;100.00
57050;BME280;42935;50.966;16.992;2023-08-07T00:46:02;100146.02;;;12.49;100.00
57050;BME280;42935;50.966;16.992;2023-08-07T00:49:23;100171.77;;;12.86;100.00
57050;BME280;42935;50.966;16.992;2023-08-07T00:52:40;100125.37;;;12.63;100.00
57050;BME280;42935;50.966;16.992;2023-08-07T00:56:01;100127.41;;;12.59;100.00
57050;BME280;42935;50.966;16.992;2023-08-07T00:59:53;100137.52;;;12.58;100.00
57050;BME280;42935;50.966;16.992;2023-08-07T01:03:12;100128.17;;;12.53;100.00
57050;BME280;42935;50.966;16.992;2023-08-07T01:06:31;100165.91;;;12.80;100.00
57050;BME280;42935;50.966;16.992;2023-08-07T01:09:52;100163.26;;;12.78;100.00
57050;BME280;42935;50.966;16.992;2023-08-07T01:16:50;100158.95;;;12.85;100.00
57050;BME280;42935;50.966;16.992;2023-08-07T01:20:11;100153.85;;;12.89;100.00
57050;BME280;42935;50.966;16.992;2023-08-07T01:23:35;100154.09;;;12.96;100.00
57050;BME280;42935;50.966;16.992;2023-08-07T01:27:00;100151.14;;;12.95;100.00
57050;BME280;42935;50.966;16.992;2023-08-07T01:33:57;100157.48;;;12.98;100.00
57050;BME280;42935;50.966;16.992;2023-08-07T01:37:24;100153.98;;;12.88;100.00
57050;BME280;42935;50.966;16.992;2023-08-07T01:40:45;100111.70;;;12.69;100.00
57050;BME280;42935;50.966;16.992;2023-08-07T01:44:04;100150.02;;;13.12;100.00
57050;BME280;42935;50.966;16.992;2023-08-07T01:47:25;100103.93;;;12.81;100.00
57050;BME280;42935;50.966;16.992;2023-08-07T01:50:48;100139.73;;;13.11;100.00
57050;BME280;42935;50.966;16.992;2023-08-07T01:54:10;100115.18;;;13.02;100.00
57050;BME280;42935;50.966;16.992;2023-08-07T01:57:28;100114.76;;;12.74;100.00
57050;BME280;42935;50.966;16.992;2023-08-07T02:00:50;100158.63;;;13.04;100.00
57050;BME280;42935;50.966;16.992;2023-08-07T02:04:08;100145.09;;;13.01;100.00
57050;BME280;42935;50.966;16.992;2023-08-07T02:07:57;100154.99;;;13.06;100.00
57050;BME280;42935;50.966;16.992;2023-08-07T02:11:18;100108.17;;;12.63;100.00
57050;BME280;42935;50.966;16.992;2023-08-07T02:14:36;100115.98;;;12.59;100.00
57050;BME280;42935;50.966;16.992;2023-08-07T02:17:54;100164.82;;;12.84;100.00
57050;BME280;42935;50.966;16.992;2023-08-07T02:21:15;100157.75;;;12.78;100.00
57050;BME280;42935;50.966;16.992;2023-08-07T02:24:32;100167.34;;;12.77;100.00
57050;BME280;42935;50.966;16.992;2023-08-07T02:27:53;100115.60;;;12.44;100.00
57050;BME280;42935;50.966;16.992;2023-08-07T02:31:14;100167.47;;;12.75;100.00
57050;BME280;42935;50.966;16.992;2023-08-07T02:34:31;100165.95;;;12.71;100.00
57050;BME280;42935;50.966;16.992;2023-08-07T02:37:52;100116.06;;;12.47;100.00
57050;BME280;42935;50.966;16.992;2023-08-07T02:41:12;100144.19;;;12.68;100.00
57050;BME280;42935;50.966;16.992;2023-08-07T02:44:33;100160.88;;;12.74;100.00
57050;BME280;42935;50.966;16.992;2023-08-07T02:48:22;100131.27;;;12.57;100.00
57050;BME280;42935;50.966;16.992;2023-08-07T02:51:47;100129.44;;;12.58;100.00
57050;BME280;42935;50.966;16.992;2023-08-07T02:55:05;100165.41;;;12.83;100.00
57050;BME280;42935;50.966;16.992;2023-08-07T02:58:27;100166.16;;;12.88;100.00
57050;BME280;42935;50.966;16.992;2023-08-07T03:01:49;100169.24;;;12.88;100.00
57050;BME280;42935;50.966;16.992;2023-08-07T03:05:07;100130.83;;;12.64;100.00
57050;BME280;42935;50.966;16.992;2023-08-07T03:08:26;100173.01;;;12.89;100.00
57050;BME280;42935;50.966;16.992;2023-08-07T03:11:47;100172.34;;;12.95;100.00
57050;BME280;42935;50.966;16.992;2023-08-07T03:15:06;100170.54;;;13.22;100.00
57050;BME280;42935;50.966;16.992;2023-08-07T03:18:23;100174.45;;;13.30;100.00
57050;BME280;42935;50.966;16.992;2023-08-07T03:21:44;100123.00;;;12.92;100.00
57050;BME280;42935;50.966;16.992;2023-08-07T03:25:09;100171.67;;;13.26;100.00
57050;BME280;42935;50.966;16.992;2023-08-07T03:28:30;100172.97;;;13.28;100.00
57050;BME280;42935;50.966;16.992;2023-08-07T03:31:55;100169.90;;;13.31;100.00
57050;BME280;42935;50.966;16.992;2023-08-07T03:35:12;100192.84;;;13.50;100.00
57050;BME280;42935;50.966;16.992;2023-08-07T03:38:33;100184.92;;;13.41;100.00
57050;BME280;42935;50.966;16.992;2023-08-07T03:42:24;100154.84;;;13.22;100.00
57050;BME280;42935;50.966;16.992;2023-08-07T03:45:44;100188.91;;;13.38;100.00
57050;BME280;42935;50.966;16.992;2023-08-07T03:49:06;100197.62;;;13.57;100.00
57050;BME280;42935;50.966;16.992;2023-08-07T03:52:28;100199.59;;;13.67;100.00
57050;BME280;42935;50.966;16.992;2023-08-07T03:55:51;100203.93;;;13.70;100.00
57050;BME280;42935;50.966;16.992;2023-08-07T03:59:10;100170.55;;;13.53;100.00
57050;BME280;42935;50.966;16.992;2023-08-07T04:02:26;100198.01;;;13.68;100.00
57050;BME280;42935;50.966;16.992;2023-08-07T04:05:52;100196.27;;;13.63;100.00
57050;BME280;42935;50.966;16.992;2023-08-07T04:09:13;100204.95;;;13.73;100.00
57050;BME280;42935;50.966;16.992;2023-08-07T04:13:06;100205.27;;;13.87;100.00
57050;BME280;42935;50.966;16.992;2023-08-07T04:16:30;100202.97;;;13.81;100.00
57050;BME280;42935;50.966;16.992;2023-08-07T04:19:51;100197.99;;;13.81;100.00
57050;BME280;42935;50.966;16.992;2023-08-07T04:23:09;100161.88;;;13.48;100.00
57050;BME280;42935;50.966;16.992;2023-08-07T04:26:27;100205.58;;;13.70;100.00
57050;BME280;42935;50.966;16.992;2023-08-07T04:29:52;100205.73;;;13.75;100.00
57050;BME280;42935;50.966;16.992;2023-08-07T04:33:13;100214.80;;;13.82;100.00
57050;BME280;42935;50.966;16.992;2023-08-07T04:36:34;100211.09;;;13.82;100.00
57050;BME280;42935;50.966;16.992;2023-08-07T04:39:55;100216.17;;;13.79;100.00
57050;BME280;42935;50.966;16.992;2023-08-07T04:43:22;100171.50;;;13.45;100.00
57050;BME280;42935;50.966;16.992;2023-08-07T04:46:43;100215.91;;;13.62;100.00
57050;BME280;42935;50.966;16.992;2023-08-07T04:50:32;100220.35;;;13.60;100.00
57050;BME280;42935;50.966;16.992;2023-08-07T04:53:50;100217.34;;;13.54;100.00
57050;BME280;42935;50.966;16.992;2023-08-07T04:57:11;100224.80;;;13.55;100.00
57050;BME280;42935;50.966;16.992;2023-08-07T05:00:32;100219.38;;;13.47;100.00
57050;BME280;42935;50.966;16.992;2023-08-07T05:03:53;100229.00;;;13.50;100.00
57050;BME280;42935;50.966;16.992;2023-08-07T05:07:14;100222.38;;;13.49;100.00
57050;BME280;42935;50.966;16.992;2023-08-07T05:10:35;100224.20;;;13.69;100.00
57050;BME280;42935;50.966;16.992;2023-08-07T05:13:51;100240.30;;;13.76;100.00
57050;BME280;42935;50.966;16.992;2023-08-07T05:17:12;100219.78;;;13.57;100.00
57050;BME280;42935;50.966;16.992;2023-08-07T05:20:31;100249.33;;;13.61;100.00
57050;BME280;42935;50.966;16.992;2023-08-07T05:23:49;100256.24;;;13.60;100.00
57050;BME280;42935;50.966;16.992;2023-08-07T05:27:45;100257.46;;;13.48;100.00
57050;BME280;42935;50.966;16.992;2023-08-07T05:31:34;100209.17;;;13.23;100.00
57050;BME280;42935;50.966;16.992;2023-08-07T05:35:24;100253.63;;;13.24;100.00
57050;BME280;42935;50.966;16.992;2023-08-07T05:39:14;100270.98;;;13.40;100.00
57050;BME280;42935;50.966;16.992;2023-08-07T05:42:35;100262.20;;;13.50;100.00
57050;BME280;42935;50.966;16.992;2023-08-07T05:46:25;100237.15;;;13.25;100.00
57050;BME280;42935;50.966;16.992;2023-08-07T05:50:16;100236.53;;;13.29;100.00
57050;BME280;42935;50.966;16.992;2023-08-07T05:53:38;100282.50;;;13.57;100.00
57050;BME280;42935;50.966;16.992;2023-08-07T05:56:54;100279.78;;;13.56;100.00
57050;BME280;42935;50.966;16.992;2023-08-07T06:00:13;100285.37;;;13.62;100.00
57050;BME280;42935;50.966;16.992;2023-08-07T06:03:36;100292.51;;;13.45;100.00
57050;BME280;42935;50.966;16.992;2023-08-07T06:06:58;100295.04;;;13.58;100.00
57050;BME280;42935;50.966;16.992;2023-08-07T06:10:19;100303.35;;;13.52;100.00
57050;BME280;42935;50.966;16.992;2023-08-07T06:13:41;100305.70;;;13.45;100.00
57050;BME280;42935;50.966;16.992;2023-08-07T06:17:02;100288.48;;;13.53;100.00
57050;BME280;42935;50.966;16.992;2023-08-07T06:20:19;100261.59;;;13.22;100.00
57050;BME280;42935;50.966;16.992;2023-08-07T06:24:10;100309.06;;;13.46;100.00
57050;BME280;42935;50.966;16.992;2023-08-07T06:27:32;100272.48;;;13.35;100.00
57050;BME280;42935;50.966;16.992;2023-08-07T06:30:49;100310.27;;;13.23;100.00
57050;BME280;42935;50.966;16.992;2023-08-07T06:34:11;100281.05;;;12.92;100.00
57050;BME280;42935;50.966;16.992;2023-08-07T06:37:32;100297.12;;;13.00;100.00
57050;BME280;42935;50.966;16.992;2023-08-07T06:40:55;100335.31;;;13.32;100.00
57050;BME280;42935;50.966;16.992;2023-08-07T06:44:44;100295.63;;;13.17;100.00
57050;BME280;42935;50.966;16.992;2023-08-07T06:48:02;100298.88;;;13.18;100.00
57050;BME280;42935;50.966;16.992;2023-08-07T06:51:20;100327.42;;;13.50;100.00
57050;BME280;42935;50.966;16.992;2023-08-07T06:54:37;100325.77;;;13.57;100.00
57050;BME280;42935;50.966;16.992;2023-08-07T06:57:55;100308.67;;;13.32;100.00
57050;BME280;42935;50.966;16.992;2023-08-07T07:01:16;100347.39;;;13.62;100.00
57050;BME280;42935;50.966;16.992;2023-08-07T07:05:08;100352.90;;;13.72;100.00
57050;BME280;42935;50.966;16.992;2023-08-07T07:08:29;100347.86;;;13.84;100.00
57050;BME280;42935;50.966;16.992;2023-08-07T07:11:50;100355.39;;;13.83;100.00
57050;BME280;42935;50.966;16.992;2023-08-07T07:15:11;100364.91;;;14.29;100.00
57050;BME280;42935;50.966;16.992;2023-08-07T07:18:32;100361.09;;;14.11;100.00
57050;BME280;42935;50.966;16.992;2023-08-07T07:22:24;100342.11;;;14.06;100.00
57050;BME280;42935;50.966;16.992;2023-08-07T07:25:49;100369.31;;;14.21;100.00
57050;BME280;42935;50.966;16.992;2023-08-07T07:29:07;100325.02;;;13.96;100.00
57050;BME280;42935;50.966;16.992;2023-08-07T07:32:28;100363.48;;;14.29;100.00
57050;BME280;42935;50.966;16.992;2023-08-07T07:35:49;100316.53;;;14.47;100.00
57050;BME280;42935;50.966;16.992;2023-08-07T07:39:15;100360.78;;;14.92;100.00
57050;BME280;42935;50.966;16.992;2023-08-07T07:42:36;100363.85;;;15.24;100.00
57050;BME280;42935;50.966;16.992;2023-08-07T07:45:58;100310.01;;;14.89;100.00
57050;BME280;42935;50.966;16.992;2023-08-07T07:49:15;100334.69;;;14.96;100.00
57050;BME280;42935;50.966;16.992;2023-08-07T07:52:34;100368.49;;;15.28;100.00
57050;BME280;42935;50.966;16.992;2023-08-07T07:55:55;100335.52;;;15.17;100.00
57050;BME280;42935;50.966;16.992;2023-08-07T07:59:16;100380.02;;;15.48;100.00
57050;BME280;42935;50.966;16.992;2023-08-07T08:02:33;100330.31;;;15.16;100.00
57050;BME280;42935;50.966;16.992;2023-08-07T08:05:54;100378.59;;;15.58;100.00
57050;BME280;42935;50.966;16.992;2023-08-07T08:09:45;100389.29;;;15.67;100.00
57050;BME280;42935;50.966;16.992;2023-08-07T08:13:09;100393.81;;;15.77;100.00
57050;BME280;42935;50.966;16.992;2023-08-07T08:16:25;100393.30;;;16.22;100.00
57050;BME280;42935;50.966;16.992;2023-08-07T08:19:48;100388.92;;;16.26;100.00
57050;BME280;42935;50.966;16.992;2023-08-07T08:23:09;100382.44;;;16.36;100.00
57050;BME280;42935;50.966;16.992;2023-08-07T08:26:26;100392.59;;;16.53;100.00
57050;BME280;42935;50.966;16.992;2023-08-07T08:29:47;100400.85;;;16.52;100.00
57050;BME280;42935;50.966;16.992;2023-08-07T08:33:08;100407.37;;;16.70;100.00
57050;BME280;42935;50.966;16.992;2023-08-07T08:36:29;100402.44;;;16.77;100.00
57050;BME280;42935;50.966;16.992;2023-08-07T08:39:50;100376.95;;;16.39;100.00
57050;BME280;42935;50.966;16.992;2023-08-07T08:43:12;100410.37;;;16.61;100.00
57050;BME280;42935;50.966;16.992;2023-08-07T08:46:36;100367.38;;;16.25;100.00
57050;BME280;42935;50.966;16.992;2023-08-07T08:50:11;100420.29;;;16.57;100.00
57050;BME280;42935;50.966;16.992;2023-08-07T08:53:42;100422.40;;;16.40;100.00
57050;BME280;42935;50.966;16.992;2023-08-07T08:57:17;100420.91;;;16.52;100.00
57050;BME280;42935;50.966;16.992;2023-08-07T09:00:41;100430.80;;;16.79;100.00
57050;BME280;42935;50.966;16.992;2023-08-07T09:04:14;100392.35;;;16.61;100.00
57050;BME280;42935;50.966;16.992;2023-08-07T09:07:43;100396.08;;;16.46;100.00
57050;BME280;42935;50.966;16.992;2023-08-07T09:11:14;100435.82;;;16.52;100.00
57050;BME280;42935;50.966;16.992;2023-08-07T09:14:42;100445.71;;;16.30;100.00
57050;BME280;42935;50.966;16.992;2023-08-07T09:18:17;100456.24;;;16.46;100.00
57050;BME280;42935;50.966;16.992;2023-08-07T09:22:16;100405.24;;;16.22;100.00
57050;BME280;42935;50.966;16.992;2023-08-07T09:25:43;100430.78;;;16.51;100.00
57050;BME280;42935;50.966;16.992;2023-08-07T09:29:03;100402.84;;;16.26;100.00
57050;BME280;42935;50.966;16.992;2023-08-07T09:32:21;100447.95;;;16.64;100.00
57050;BME280;42935;50.966;16.992;2023-08-07T09:35:42;100457.96;;;16.29;100.00
57050;BME280;42935;50.966;16.992;2023-08-07T09:39:03;100466.54;;;16.08;100.00
57050;BME280;42935;50.966;16.992;2023-08-07T09:42:24;100452.64;;;16.16;100.00
57050;BME280;42935;50.966;16.992;2023-08-07T09:45:45;100395.28;;;15.85;100.00
57050;BME280;42935;50.966;16.992;2023-08-07T09:49:03;100460.74;;;16.13;100.00
57050;BME280;42935;50.966;16.992;2023-08-07T09:52:24;100470.23;;;16.09;100.00
57050;BME280;42935;50.966;16.992;2023-08-07T09:55:46;100466.27;;;16.32;100.00
57050;BME280;42935;50.966;16.992;2023-08-07T09:59:07;100432.77;;;16.91;100.00
57050;BME280;42935;50.966;16.992;2023-08-07T10:02:24;100460.81;;;17.78;100.00
57050;BME280;42935;50.966;16.992;2023-08-07T10:05:45;100457.79;;;17.92;88.96
57050;BME280;42935;50.966;16.992;2023-08-07T10:09:06;100424.62;;;17.36;85.34
57050;BME280;42935;50.966;16.992;2023-08-07T10:12:27;100470.45;;;17.99;85.53
57050;BME280;42935;50.966;16.992;2023-08-07T10:15:46;100432.48;;;18.13;82.62
57050;BME280;42935;50.966;16.992;2023-08-07T10:19:11;100469.95;;;18.52;82.83
57050;BME280;42935;50.966;16.992;2023-08-07T10:22:33;100490.38;;;18.19;79.41
57050;BME280;42935;50.966;16.992;2023-08-07T10:25:52;100479.35;;;17.70;82.25
57050;BME280;42935;50.966;16.992;2023-08-07T10:29:18;100448.75;;;18.07;83.04
57050;BME280;42935;50.966;16.992;2023-08-07T10:32:38;100469.16;;;18.08;84.60
57050;BME280;42935;50.966;16.992;2023-08-07T10:36:00;100474.94;;;18.26;82.85
57050;BME280;42935;50.966;16.992;2023-08-07T10:39:26;100469.55;;;18.23;77.28
57050;BME280;42935;50.966;16.992;2023-08-07T10:42:51;100451.96;;;17.71;77.48
57050;BME280;42935;50.966;16.992;2023-08-07T10:46:19;100415.75;;;17.78;78.49
57050;BME280;42935;50.966;16.992;2023-08-07T10:49:41;100474.59;;;17.97;76.94
57050;BME280;42935;50.966;16.992;2023-08-07T10:53:03;100467.32;;;17.88;75.58
57050;BME280;42935;50.966;16.992;2023-08-07T11:00:32;100471.27;;;18.08;76.91
57050;BME280;42935;50.966;16.992;2023-08-07T11:07:24;100459.95;;;17.92;79.73
57050;BME280;42935;50.966;16.992;2023-08-07T11:10:45;100477.77;;;17.70;80.16
57050;BME280;42935;50.966;16.992;2023-08-07T11:14:02;100476.78;;;17.66;81.68
57050;BME280;42935;50.966;16.992;2023-08-07T11:17:54;100483.55;;;18.17;79.83
57050;BME280;42935;50.966;16.992;2023-08-07T11:21:14;100467.73;;;18.04;81.16
57050;BME280;42935;50.966;16.992;2023-08-07T11:24:35;100433.87;;;17.57;77.76
57050;BME280;42935;50.966;16.992;2023-08-07T11:27:58;100474.84;;;18.27;78.76
57050;BME280;42935;50.966;16.992;2023-08-07T11:31:17;100468.60;;;18.82;79.29
57050;BME280;42935;50.966;16.992;2023-08-07T11:34:39;100423.70;;;18.52;79.31
57050;BME280;42935;50.966;16.992;2023-08-07T11:38:36;100484.02;;;18.70;79.10
57050;BME280;42935;50.966;16.992;2023-08-07T11:41:55;100471.09;;;19.22;76.79
57050;BME280;42935;50.966;16.992;2023-08-07T11:45:16;100472.01;;;19.13;76.49
57050;BME280;42935;50.966;16.992;2023-08-07T11:48:37;100406.84;;;19.17;75.79
57050;BME280;42935;50.966;16.992;2023-08-07T11:51:56;100428.62;;;19.29;74.92
57050;BME280;42935;50.966;16.992;2023-08-07T11:55:15;100488.35;;;19.34;73.81
57050;BME280;42935;50.966;16.992;2023-08-07T11:58:41;100486.40;;;19.88;73.66
57050;BME280;42935;50.966;16.992;2023-08-07T12:02:10;100510.34;;;19.32;69.02
57050;BME280;42935;50.966;16.992;2023-08-07T12:05:40;100461.47;;;19.11;69.94
57050;BME280;42935;50.966;16.992;2023-08-07T12:09:02;100507.30;;;19.52;73.44
57050;BME280;42935;50.966;16.992;2023-08-07T12:12:21;100519.12;;;19.00;77.26
57050;BME280;42935;50.966;16.992;2023-08-07T12:15:42;100527.24;;;17.65;99.07
57050;BME280;42935;50.966;16.992;2023-08-07T12:19:39;100547.30;;;16.93;100.00
57050;BME280;42935;50.966;16.992;2023-08-07T12:26:32;100546.14;;;17.38;100.00
57050;BME280;42935;50.966;16.992;2023-08-07T12:29:53;100512.42;;;17.34;100.00
57050;BME280;42935;50.966;16.992;2023-08-07T12:33:15;100550.83;;;17.85;100.00
57050;BME280;42935;50.966;16.992;2023-08-07T12:36:38;100510.88;;;17.88;100.00
57050;BME280;42935;50.966;16.992;2023-08-07T12:39:58;100553.77;;;18.78;93.12
57050;BME280;42935;50.966;16.992;2023-08-07T12:43:46;100519.84;;;18.33;94.26
57050;BME280;42935;50.966;16.992;2023-08-07T12:47:39;100512.60;;;18.28;94.63
57050;BME280;42935;50.966;16.992;2023-08-07T12:51:01;100547.39;;;18.98;92.07
57050;BME280;42935;50.966;16.992;2023-08-07T12:54:22;100567.01;;;19.41;86.52
57050;BME280;42935;50.966;16.992;2023-08-07T12:57:46;100552.04;;;19.05;87.26
57050;BME280;42935;50.966;16.992;2023-08-07T13:01:09;100535.30;;;18.54;89.92
57050;BME280;42935;50.966;16.992;2023-08-07T13:04:27;100578.22;;;18.62;92.04
57050;BME280;42935;50.966;16.992;2023-08-07T13:07:42;100601.43;;;18.29;91.92
57050;BME280;42935;50.966;16.992;2023-08-07T13:11:02;100603.36;;;17.55;99.99
57050;BME280;42935;50.966;16.992;2023-08-07T13:14:22;100618.64;;;16.92;100.00
57050;BME280;42935;50.966;16.992;2023-08-07T13:17:42;100616.31;;;16.50;100.00
57050;BME280;42935;50.966;16.992;2023-08-07T13:21:33;100604.30;;;16.56;100.00
57050;BME280;42935;50.966;16.992;2023-08-07T13:24:56;100609.87;;;16.80;100.00
57050;BME280;42935;50.966;16.992;2023-08-07T13:28:16;100606.72;;;16.45;100.00
57050;BME280;42935;50.966;16.992;2023-08-07T13:31:37;100598.67;;;17.19;100.00
57050;BME280;42935;50.966;16.992;2023-08-07T13:34:56;100599.30;;;17.69;100.00
57050;BME280;42935;50.966;16.992;2023-08-07T13:38:18;100552.84;;;17.51;100.00
57050;BME280;42935;50.966;16.992;2023-08-07T13:41:38;100583.42;;;18.27;100.00
57050;BME280;42935;50.966;16.992;2023-08-07T13:44:54;100594.91;;;18.89;100.00
57050;BME280;42935;50.966;16.992;2023-08-07T13:48:12;100588.87;;;18.49;100.00
57050;BME280;42935;50.966;16.992;2023-08-07T13:51:28;100575.97;;;18.99;100.00
57050;BME280;42935;50.966;16.992;2023-08-07T13:54:49;100595.47;;;18.89;100.00
57050;BME280;42935;50.966;16.992;2023-08-07T13:58:09;100595.52;;;19.56;100.00
57050;BME280;42935;50.966;16.992;2023-08-07T14:02:00;100590.54;;;19.27;96.25
57050;BME280;42935;50.966;16.992;2023-08-07T14:05:17;100596.46;;;19.60;90.96
57050;BME280;42935;50.966;16.992;2023-08-07T14:08:37;100582.83;;;18.46;99.80
57050;BME280;42935;50.966;16.992;2023-08-07T14:11:56;100605.75;;;18.47;100.00
57050;BME280;42935;50.966;16.992;2023-08-07T14:15:11;100613.73;;;18.49;100.00
57050;BME280;42935;50.966;16.992;2023-08-07T14:18:30;100616.78;;;18.32;96.09
57050;BME280;42935;50.966;16.992;2023-08-07T14:21:47;100629.46;;;18.51;89.64
57050;BME280;42935;50.966;16.992;2023-08-07T14:25:12;100616.75;;;18.40;82.93
57050;BME280;42935;50.966;16.992;2023-08-07T14:29:25;100612.25;;;18.84;82.94
57050;BME280;42935;50.966;16.992;2023-08-07T14:33:02;100568.32;;;19.26;76.31
57050;BME280;42935;50.966;16.992;2023-08-07T14:36:45;100553.55;;;19.71;73.99
57050;BME280;42935;50.966;16.992;2023-08-07T14:40:08;100597.99;;;19.72;75.09
57050;BME280;42935;50.966;16.992;2023-08-07T14:43:31;100568.48;;;19.56;72.79
57050;BME280;42935;50.966;16.992;2023-08-07T14:46:48;100607.16;;;20.16;72.43
57050;BME280;42935;50.966;16.992;2023-08-07T14:50:08;100608.18;;;19.70;74.75
57050;BME280;42935;50.966;16.992;2023-08-07T14:53:31;100611.13;;;19.36;76.00
57050;BME280;42935;50.966;16.992;2023-08-07T14:56:58;100608.12;;;19.34;77.53
57050;BME280;42935;50.966;16.992;2023-08-07T15:00:19;100626.91;;;19.30;75.91
57050;BME280;42935;50.966;16.992;2023-08-07T15:03:37;100609.39;;;18.96;77.43
57050;BME280;42935;50.966;16.992;2023-08-07T15:06:56;100584.13;;;19.22;74.96
57050;BME280;42935;50.966;16.992;2023-08-07T15:10:16;100612.77;;;19.94;70.41
57050;BME280;42935;50.966;16.992;2023-08-07T15:13:35;100630.57;;;20.33;70.00
57050;BME280;42935;50.966;16.992;2023-08-07T15:17:05;100619.61;;;19.93;71.54
57050;BME280;42935;50.966;16.992;2023-08-07T15:20:26;100635.70;;;19.52;72.58
57050;BME280;42935;50.966;16.992;2023-08-07T15:23:44;100624.77;;;19.31;73.95
57050;BME280;42935;50.966;16.992;2023-08-07T15:27:08;100590.66;;;19.05;75.54
57050;BME280;42935;50.966;16.992;2023-08-07T15:30:29;100633.49;;;19.06;74.48
57050;BME280;42935;50.966;16.992;2023-08-07T15:33:55;100620.43;;;18.73;76.52
57050;BME280;42935;50.966;16.992;2023-08-07T15:37:17;100634.05;;;18.33;78.62
57050;BME280;42935;50.966;16.992;2023-08-07T15:40:40;100627.99;;;18.38;79.71
57050;BME280;42935;50.966;16.992;2023-08-07T15:44:00;100629.22;;;18.34;82.11
57050;BME280;42935;50.966;16.992;2023-08-07T15:47:24;100630.06;;;18.27;82.13
57050;BME280;42935;50.966;16.992;2023-08-07T15:50:44;100644.64;;;18.35;83.75
57050;BME280;42935;50.966;16.992;2023-08-07T15:54:04;100642.28;;;18.31;81.47
57050;BME280;42935;50.966;16.992;2023-08-07T15:57:30;100644.97;;;18.45;82.83
57050;BME280;42935;50.966;16.992;2023-08-07T16:00:49;100654.36;;;18.35;81.84
57050;BME280;42935;50.966;16.992;2023-08-07T16:04:10;100657.00;;;18.91;82.71
57050;BME280;42935;50.966;16.992;2023-08-07T16:07:30;100653.17;;;19.04;78.05
57050;BME280;42935;50.966;16.992;2023-08-07T16:10:50;100670.06;;;19.05;77.09
57050;BME280;42935;50.966;16.992;2023-08-07T16:14:17;100667.37;;;18.80;75.73
57050;BME280;42935;50.966;16.992;2023-08-07T16:17:37;100679.56;;;18.60;77.93
57050;BME280;42935;50.966;16.992;2023-08-07T16:20:57;100677.53;;;18.50;79.73
57050;BME280;42935;50.966;16.992;2023-08-07T16:24:17;100676.95;;;18.34;78.42
57050;BME280;42935;50.966;16.992;2023-08-07T16:27:39;100681.38;;;18.19;80.98
57050;BME280;42935;50.966;16.992;2023-08-07T16:30:59;100649.09;;;17.94;81.79
57050;BME280;42935;50.966;16.992;2023-08-07T16:34:46;100695.81;;;18.09;83.65
57050;BME280;42935;50.966;16.992;2023-08-07T16:38:05;100688.85;;;17.88;86.92
57050;BME280;42935;50.966;16.992;2023-08-07T16:41:25;100693.30;;;17.73;86.27
57050;BME280;42935;50.966;16.992;2023-08-07T16:44:48;100706.20;;;17.71;87.66
57050;BME280;42935;50.966;16.992;2023-08-07T16:48:11;100724.31;;;17.48;91.30
57050;BME280;42935;50.966;16.992;2023-08-07T16:51:36;100721.71;;;17.19;94.60
57050;BME280;42935;50.966;16.992;2023-08-07T16:54:56;100723.58;;;17.03;99.15
57050;BME280;42935;50.966;16.992;2023-08-07T16:58:16;100723.11;;;16.91;99.67
57050;BME280;42935;50.966;16.992;2023-08-07T17:02:05;100712.44;;;16.84;98.67
57050;BME280;42935;50.966;16.992;2023-08-07T17:05:25;100685.88;;;16.59;99.85
57050;BME280;42935;50.966;16.992;2023-08-07T17:08:47;100737.54;;;16.86;100.00
57050;BME280;42935;50.966;16.992;2023-08-07T17:12:41;100755.78;;;16.67;100.00
57050;BME280;42935;50.966;16.992;2023-08-07T17:15:57;100725.23;;;16.12;100.00
57050;BME280;42935;50.966;16.992;2023-08-07T17:19:16;100723.24;;;15.72;100.00
57050;BME280;42935;50.966;16.992;2023-08-07T17:22:36;100763.23;;;16.05;100.00
57050;BME280;42935;50.966;16.992;2023-08-07T17:25:58;100762.19;;;15.84;100.00
57050;BME280;42935;50.966;16.992;2023-08-07T17:29:15;100766.63;;;15.84;100.00
57050;BME280;42935;50.966;16.992;2023-08-07T17:32:36;100715.55;;;15.42;100.00
57050;BME280;42935;50.966;16.992;2023-08-07T17:35:56;100771.61;;;15.81;100.00
57050;BME280;42935;50.966;16.992;2023-08-07T17:39:44;100782.73;;;15.74;100.00
57050;BME280;42935;50.966;16.992;2023-08-07T17:43:08;100780.16;;;15.68;100.00